• Join FlightAware (Why Join?)
  • Login
  • US Flag 
12:52AM EDT


 

Airport Tracker/Info


-or-


 

Live Flight TrackerFlight Track Log ✈ UAL1519 ✈ 24-Apr-2013 ✈ KMIA - KEWR

Flight Track Log - Related Links

Times and Time Zones

All times are in EDT time to prevent confusion due to time zone crossing. See the UAL1519 flight status page for this flight to view local times or setup timezone preferences in your user account.

Time Position Orientation Groundspeed Altitude Reporting Facility
EDT Latitude Longitude Course Direction KTS MPH feet Rate Location/Type
09:59AM 25.7983 -80.2675 61° Northeast 142 163 900  Level Miami Center
10:00AM 25.8056 -80.2239 80° East 213 245 2,300 2,400 Climbing Miami Center
10:01AM 25.8178 -80.1528 79° East 266 306 5,100 2,700 Climbing Miami Center
10:02AM 25.8666 -79.9419 53° Northeast  Level FlightAware Approximate
10:02AM 25.8636 -80.0594 61° Northeast 269 310 8,400  Level Miami Center
10:03AM 25.9333 -79.8433 52° Northeast  Level FlightAware Approximate
10:03AM 25.8986 -79.9864 62° Northeast 305 351 11,000  Level Miami Center
10:04AM 26.0019 -79.7462 61° Northeast  Level FlightAware Approximate
10:04AM 25.9464 -79.8928 60° Northeast 317 365 12,900  Level Miami Center
10:05AM 25.9944 -79.7947 61° Northeast 340 391 16,000 2,580 Climbing Miami Center
10:06AM 26.0486 -79.7011 57° Northeast 376 433 18,200 2,280 Climbing Miami Center
10:07AM 26.1153 -79.6033 53° Northeast 398 458 20,600 2,220 Climbing Miami Center
10:08AM 26.1883 -79.4917 54° Northeast 405 466 22,700 1,980 Climbing Miami Center
10:09AM 26.2525 -79.3933 54° Northeast 418 481 24,600 1,980 Climbing Miami Center
10:10AM 26.3300 -79.2697 55° Northeast 428 493 26,700 1,800 Climbing Miami Center
10:11AM 26.4006 -79.1692 52° Northeast 448 516 28,200 1,620 Climbing Miami Center
10:12AM 26.5100 -79.1203 22° Northeast 424 488 30,000 1,920 Climbing Miami Center
10:13AM 26.6231 -79.0992 North 407 468 32,100 1,500 Climbing Miami Center
10:14AM 26.7361 -79.0806 North 402 463 33,000 360 Climbing Miami Center
10:15AM 26.8450 -79.0569 11° North 402 463 32,900 240 Descending Miami Center
10:16AM 26.9581 -79.0381 North 397 457 33,500 960 Climbing Miami Center
10:17AM 27.0692 -79.0167 10° North 397 457 34,900 720 Climbing Miami Center
10:18AM 27.1761 -78.9953 10° North 392 451 35,000  Climbing Miami Center
10:19AM 27.2953 -78.9719 10° North 392 451 35,000  Level Miami Center
10:20AM 27.4022 -78.9506 10° North 392 451 35,000  Level Miami Center
10:21AM 27.5006 -78.9358 North 392 451 35,000  Level Miami Center
10:22AM 27.6094 -78.9214 North 392 451 35,000  Level Miami Center
10:23AM 27.7286 -78.9047 North 386 444 35,000  Level Miami Center
10:24AM 27.8417 -78.8903 North 392 451 35,000 -60 Level Miami Center
10:25AM 27.9378 -78.8756 North 392 451 34,900  Descending Miami Center
10:26AM 28.0486 -78.8586 North 392 451 35,000  Climbing Miami Center
10:27AM 28.1594 -78.8467 North 391 450 35,000 -60 Level Miami Center
10:28AM 28.2661 -78.8297 North 386 444 34,900 -60 Descending Miami Center
10:29AM 28.3750 -78.8150 North 386 444 34,900  Level Miami Center
10:30AM 28.4817 -78.8003 North 386 444 35,000  Climbing Miami Center
10:31AM 28.5883 -78.7833 North 392 451 34,900  Descending Miami Center
10:32AM 28.6969 -78.7708 North 392 451 35,000  Climbing Miami Center
10:33AM 28.8119 -78.7539 North 392 451 35,000  Level Miami Center
10:34AM 28.9208 -78.7367 North 392 451 35,000  Level Miami Center
10:35AM 29.0336 -78.7222 North 392 451 35,000  Level Miami Center
10:36AM 29.1444 -78.7050 North 398 458 35,000  Level Miami Center
10:37AM 29.2531 -78.6878 North 398 458 35,000  Level Miami Center
10:38AM 29.3700 -78.6731 North 405 466 35,000 -60 Level Miami Center
10:39AM 29.4808 -78.6583 North 405 466 34,900  Descending Miami Center
10:40AM 29.5956 -78.6481 North 411 473 35,000  Climbing Miami Center
10:41AM 29.7022 -78.6283 North 405 466 35,000  Level Miami Center
10:42AM 29.8131 -78.6111 North 397 457 35,000 -60 Level Miami Center
10:43AM 29.9236 -78.5936 North 392 451 34,900  Descending Miami Center
10:44AM 30.0578 -78.5733 North 402 463 35,000  Climbing Jacksonville Center
10:45AM 30.1675 -78.5539 North 402 463 35,000  Level Jacksonville Center
10:46AM 30.2778 -78.5417 North 402 463 35,000  Level Jacksonville Center
10:47AM 30.3961 -78.5242 North 402 463 35,000  Level Jacksonville Center
10:48AM 30.5042 -78.5097 North 399 459 35,000  Level Jacksonville Center
10:49AM 30.6183 -78.4900 North 406 467 35,000  Level Jacksonville Center
10:50AM 30.7283 -78.4703 North 407 468 35,000  Level Jacksonville Center
10:51AM 30.8467 -78.4528 North 407 468 35,000  Level Jacksonville Center
10:52AM 30.9567 -78.4356 North 407 468 35,000  Level Jacksonville Center
10:53AM 31.0833 -78.4172 North 407 468 35,000 -60 Level Jacksonville Center
10:54AM 31.1994 -78.3947 North 407 468 34,900  Descending Jacksonville Center
10:55AM 31.3097 -78.3797 North 407 468 35,000  Climbing Jacksonville Center
10:56AM 31.4219 -78.3647 North 401 461 34,900 -60 Descending Jacksonville Center
10:57AM 31.5378 -78.3394 11° North 403 464 34,900  Level Jacksonville Center
10:58AM 31.6500 -78.3219 North 408 470 35,000  Climbing Jacksonville Center
10:59AM 31.7681 -78.3014 North 408 470 35,000  Level Jacksonville Center
11:00AM 31.8803 -78.2836 North 408 470 35,000  Level Jacksonville Center
11:01AM 31.9922 -78.2656 North 408 470 35,000  Level Jacksonville Center
11:02AM 32.1064 -78.2475 North 408 470 35,000  Level Jacksonville Center
11:03AM 32.2203 -78.2247 10° North 408 470 35,000 -60 Level Jacksonville Center
11:04AM 32.3342 -78.2017 10° North 408 470 34,900  Descending Jacksonville Center
11:05AM 32.4464 -78.1836 North 408 470 35,000  Climbing Jacksonville Center
11:06AM 32.5606 -78.1703 North 408 470 35,000 -60 Level Jacksonville Center
11:07AM 32.6728 -78.1519 North 408 470 34,900  Descending Jacksonville Center
11:08AM 32.7867 -78.1311 North 408 470 35,000  Climbing Jacksonville Center
11:09AM 32.9008 -78.1153 North 408 470 35,000  Level Jacksonville Center
11:10AM 33.0169 -78.0967 North 403 464 35,000  Level Jacksonville Center
11:11AM 33.1311 -78.0783 North 408 470 35,000  Level Jacksonville Center
11:12AM 33.2453 -78.0597 North 408 470 35,000 -60 Level Jacksonville Center
11:13AM 33.3592 -78.0386 North 408 470 34,900  Descending Jacksonville Center
11:14AM 33.4942 -78.0194 North 408 470 35,000  Climbing Washington Center
11:15AM 33.6072 -78.0003 North 413 475 35,000  Level Washington Center
11:16AM 33.7225 -77.9811 North 408 470 35,000  Level Washington Center
11:17AM 33.8314 -77.9617 North 408 470 35,000  Level Washington Center
11:18AM 33.9506 -77.9425 North 413 475 35,000  Level Washington Center
11:19AM 34.0636 -77.9208 North 413 475 35,000  Level Washington Center
11:20AM 34.1744 -77.9039 North 407 468 35,000  Level Washington Center
11:21AM 34.3042 -77.8847 North 420 483 35,000  Level Washington Center
11:22AM 34.4131 -77.8753 North 420 483 35,000  Level Washington Center
11:23AM 34.5278 -77.8733 North 415 478 35,000  Level Washington Center
11:24AM 34.6383 -77.8714 North 402 463 35,000 -60 Level Washington Center
11:25AM 34.7531 -77.8722 360° North 402 463 34,900  Descending Washington Center
11:26AM 34.8511 -77.8672 North 402 463 35,000  Climbing Washington Center
11:27AM 34.9639 -77.8653 North 402 463 35,000  Level Washington Center
11:28AM 35.0767 -77.8636 North 402 463 35,000  Level Washington Center
11:29AM 35.1914 -77.8617 North 402 463 35,000  Level Washington Center
11:30AM 35.3147 -77.8600 North 402 463 35,000  Level Washington Center
11:31AM 35.4272 -77.8581 North 402 463 35,000  Level Washington Center
11:32AM 35.5400 -77.8561 North 402 463 35,000  Level Washington Center
11:33AM 35.6528 -77.8569 360° North 402 463 35,000  Level Washington Center
11:34AM 35.7633 -77.8550 North 402 463 35,000  Level Washington Center
11:35AM 35.8761 -77.8531 North 402 463 35,000  Level Washington Center
11:36AM 35.9844 -77.8533 360° North 402 463 35,000  Level Washington Center
11:37AM 36.0953 -77.8489 North 402 463 35,000  Level Washington Center
11:38AM 36.2058 -77.8469 North 402 463 35,000  Level Washington Center
11:39AM 36.3164 -77.8475 360° North 402 463 35,000  Level Washington Center
11:40AM 36.4250 -77.8456 North 397 457 35,000  Level Washington Center
11:41AM 36.5356 -77.8461 360° North 397 457 35,000  Level Washington Center
11:42AM 36.6503 -77.8442 North 402 463 35,000  Level Washington Center
11:43AM 36.7631 -77.8422 North 402 463 35,000  Level Washington Center
11:44AM 36.8722 -77.7936 20° North 408 470 35,000  Level Washington Center
11:45AM 36.9778 -77.7342 24° Northeast 408 470 35,000  Level Washington Center
11:46AM 37.0853 -77.6747 24° Northeast 414 476 35,000  Level Washington Center
11:47AM 37.1947 -77.6150 23° Northeast 414 476 35,000  Level Washington Center
11:48AM 37.3019 -77.5553 24° Northeast 414 476 35,000  Level Washington Center
11:49AM 37.4094 -77.4928 25° Northeast 419 482 35,000  Level Washington Center
11:50AM 37.5189 -77.4300 24° Northeast 419 482 35,000  Level Washington Center
11:51AM 37.6156 -77.3772 23° Northeast 419 482 35,000  Level Washington Center
11:52AM 37.7250 -77.3142 24° Northeast 419 482 35,000  Level Washington Center
11:53AM 37.8344 -77.2508 25° Northeast 419 482 35,000  Level Washington Center
11:54AM 37.9436 -77.1875 25° Northeast 419 482 35,000  Level Washington Center
11:55AM 38.0489 -77.1133 29° Northeast 419 482 35,000  Level Washington Center
11:56AM 38.1500 -77.0281 34° Northeast 431 496 35,000  Level Washington Center
11:57AM 38.2489 -76.9453 33° Northeast 431 496 35,000  Level Washington Center
11:58AM 38.3500 -76.8653 32° Northeast 425 489 35,000  Level Washington Center
11:59AM 38.4508 -76.7794 34° Northeast 425 489 35,000  Level Washington Center
12:00PM 38.5622 -76.6883 33° Northeast 425 489 35,000  Level Washington Center
12:01PM 38.6631 -76.6047 33° Northeast 425 489 35,000  Level Washington Center
12:02PM 38.7639 -76.5208 33° Northeast 425 489 35,000  Level Washington Center
12:03PM 38.8644 -76.4342 34° Northeast 425 489 35,000  Level Washington Center
12:04PM 38.9653 -76.3497 33° Northeast 425 489 35,000 -1,200 Level Washington Center
12:05PM 39.0658 -76.2625 34° Northeast 430 495 32,600 -2,880 Descending Washington Center
12:06PM 39.1517 -76.1883 34° Northeast 436 502 29,300 -2,820 Descending Washington Center
12:07PM 39.2769 -76.0822 33° Northeast 461 531 27,000 -1,200 Descending Washington Center
12:08PM 39.3714 -75.9728 42° Northeast 461 531 27,000  Level Washington Center
12:09PM 39.4694 -75.8603 42° Northeast 461 531 27,000 -300 Level Washington Center
12:10PM 39.5656 -75.7478 42° Northeast 461 531 26,400 -1,500 Descending Washington Center
12:11PM 39.6636 -75.6267 44° Northeast 455 524 24,000 -2,400 Descending Washington Center
12:12PM 39.7531 -75.5214 42° Northeast 445 512 21,600 -2,400 Descending Washington Center
12:13PM 39.8406 -75.4131 44° Northeast 439 505 19,200 -2,340 Descending Washington Center
12:14PM 39.9217 -75.3156 43° Northeast 416 479 17,000 -2,340 Descending Washington Center
12:15PM 40.0025 -75.2178 43° Northeast 406 467 14,600 -2,160 Descending Washington Center
12:18PM 40.1500 -75.0333 44° Northeast 365 420 10,400 -1,680 Descending New York TRACON
12:19PM 40.2333 -74.9500 37° Northeast 323 372 9,500 -1,200 Descending New York TRACON
12:20PM 40.2833 -74.8667 52° Northeast 316 364 8,100 -1,080 Descending New York TRACON
12:21PM 40.3500 -74.7833 44° Northeast 308 354 7,400 -900 Descending New York TRACON
12:22PM 40.4000 -74.7000 52° Northeast 296 341 6,400 -660 Descending New York TRACON
12:23PM 40.4667 -74.6500 30° Northeast 286 329 6,100 -180 Descending New York TRACON
12:24PM 40.5500 -74.6333 North 282 325 6,100  Level New York TRACON
12:25PM 40.6333 -74.6167 North 286 329 6,100  Level New York TRACON
12:25PM 40.7000 -74.5833 21° North 289 333 6,100 -180 Level New York TRACON
12:26PM 40.7667 -74.5500 21° North 288 331 5,800 -600 Descending New York TRACON
12:27PM 40.8500 -74.5500 360° North 277 319 5,000 -840 Descending New York TRACON